Pagrindinis puslapis
METAR-TAF:

METAR-TAF

Oro uostai :

Labuan, Malaizija

platuma: 05-18N, ilguma: 115-15E, Aukštis: 30 m

Dabartinis oras

Ataskaita buvo paskelbta 18 minutes, ne 20:00 UTC
Vėjas 3 kt nuo kintamojo kryptimis
Temperatūra 27°C
Drėgmė 89%
Slėgis 1009 hPa
Matomumas: 4000 m
Mažai debesys ne aukštis 1400 ft
Išsisklaidę debesys ne aukštis 14000 ft
Su prošvaistėmis ne aukštis 28000 ft
migla

METAR: WBKL 202000Z VRB03KT 4000 HZ FEW014 SCT140 BKN280 27/25 Q1009

Laikas: 04:18 (20:18 UTC)

Prognozė

Ataskaita buvo paskelbta 3 valandos ir 18 minutes, ne 17:00 UTC
Prognozė galioja nuo 20 metu 18 UTC su 21 metu 18 UTC
Vėjas 3 kt nuo kintamojo kryptimis
Matomumas: 5000 m
Mažai debesys ne aukštis 1500 ft
migla
Tapsmas
nuo 21 metu 00 UTC su 21 metu 02 UTC
Vėjas 5 kt iš Šiaurės Rytų

TAF: WBKL 201700Z 2018/2118 VRB03KT 5000 HZ FEW015 BECMG 2100/2102 04005KT

Orai ataskaitas ir orų prognozės (METAR, TAF).

turimą stotys yra geltonos ir raudonos taškus žemėlapyje.

Perkelti pele per norėdami pamatyti stoties vardą.

Tada spustelėkite, norėdami matyti oro stebėjimo ir prognozės.

Norėdami pakeisti žemėlapį: spustelėkite ant žalios mygtukų su juodo kryžiaus žemyn,; žalią mygtuką su brūkšneliu, jei norite nutolinti; arba žalių rodyklių gretimoms žemėlapius.


METAR-TAF: